createdAt,value
2022-09-12T00:02:15.178Z,9.50
2022-09-12T00:04:42.077Z,8.88
2022-09-12T00:07:08.801Z,4.05
2022-09-12T00:09:35.786Z,6.47
2022-09-12T00:12:03.066Z,4.38
2022-09-12T00:14:32.425Z,4.78
2022-09-12T00:17:00.392Z,4.22
2022-09-12T00:19:28.818Z,4.88
2022-09-12T00:22:00.593Z,6.43
2022-09-12T00:24:27.539Z,5.10
2022-09-12T00:26:54.274Z,8.23
2022-09-12T00:29:22.873Z,9.77
2022-09-12T00:31:50.060Z,6.65
2022-09-12T00:34:17.398Z,5.25
2022-09-12T00:36:44.345Z,3.53
2022-09-12T00:39:15.261Z,4.13
2022-09-12T00:41:41.965Z,8.48
2022-09-12T00:44:27.290Z,7.05
2022-09-12T00:47:31.183Z,8.73
2022-09-12T00:50:07.781Z,5.50
2022-09-12T00:53:09.731Z,5.68
2022-09-12T00:55:44.357Z,3.53
2022-09-12T00:58:20.221Z,5.95
2022-09-12T01:00:47.718Z,6.93
2022-09-12T01:03:17.274Z,6.32
2022-09-12T01:05:56.235Z,6.00
2022-09-12T01:08:24.211Z,5.88
2022-09-12T01:10:55.846Z,4.40
2022-09-12T01:13:26.530Z,2.92
2022-09-12T01:15:56.959Z,5.20
2022-09-12T01:18:26.898Z,5.75
2022-09-12T01:21:01.222Z,2.72
2022-09-12T01:23:40.241Z,4.75
2022-09-12T01:26:41.728Z,3.78
2022-09-12T01:29:43.766Z,1.52
2022-09-12T01:32:31.747Z,9.50
2022-09-12T01:35:08.576Z,4.18
2022-09-12T01:37:38.414Z,3.67
2022-09-12T01:40:16.688Z,4.72
2022-09-12T01:43:19.001Z,4.10
2022-09-12T01:45:56.783Z,4.60
2022-09-12T01:48:36.148Z,4.60
2022-09-12T01:51:47.255Z,5.38
2022-09-12T01:54:30.815Z,4.80
2022-09-12T01:57:04.419Z,6.93
2022-09-12T01:59:39.488Z,4.70
2022-09-12T02:02:14.151Z,4.20
2022-09-12T02:05:00.765Z,5.65
2022-09-12T02:07:51.805Z,4.57
2022-09-12T02:10:32.707Z,5.97
2022-09-12T02:13:16.141Z,3.53
2022-09-12T02:15:56.543Z,5.13
2022-09-12T02:18:26.275Z,3.70
2022-09-12T02:20:54.647Z,4.15
2022-09-12T02:23:26.921Z,7.07
2022-09-12T02:25:59.172Z,5.70
2022-09-12T02:28:31.301Z,6.20
2022-09-12T02:31:01.112Z,4.32
2022-09-12T02:33:36.754Z,2.92
2022-09-12T02:36:24.110Z,3.00
2022-09-12T02:38:51.757Z,4.00
2022-09-12T02:41:20.875Z,5.40
2022-09-12T02:43:50.657Z,7.35
2022-09-12T02:46:27.289Z,6.47
2022-09-12T02:48:55.634Z,7.78
2022-09-12T02:51:23.790Z,5.60
2022-09-12T02:53:51.428Z,6.70
2022-09-12T02:56:28.415Z,5.55
2022-09-12T02:58:59.914Z,3.10
2022-09-12T03:01:29.881Z,10.18
2022-09-12T03:04:24.491Z,7.53
2022-09-12T03:07:05.477Z,6.95
2022-09-12T03:09:53.461Z,5.28
2022-09-12T03:12:50.041Z,7.57
2022-09-12T03:15:32.323Z,4.50
2022-09-12T03:18:12.173Z,2.80
2022-09-12T03:21:11.391Z,7.63
2022-09-12T03:23:55.977Z,3.55
2022-09-12T03:26:58.558Z,3.97
2022-09-12T03:29:27.918Z,9.23
2022-09-12T03:31:58.355Z,2.55
2022-09-12T03:34:27.501Z,5.05
2022-09-12T03:36:58.338Z,5.70
2022-09-12T03:39:26.971Z,3.35
2022-09-12T03:41:55.595Z,6.22
2022-09-12T03:44:22.354Z,5.07
2022-09-12T03:46:49.330Z,7.03
2022-09-12T03:49:16.399Z,6.57
2022-09-12T03:51:43.679Z,4.78
2022-09-12T03:54:11.166Z,2.75
2022-09-12T03:56:38.110Z,4.93
2022-09-12T03:59:06.883Z,2.30
2022-09-12T04:01:34.570Z,3.73
2022-09-12T04:04:01.888Z,4.15
2022-09-12T04:06:29.140Z,2.63
2022-09-12T04:08:56.353Z,4.72
2022-09-12T04:11:24.309Z,4.72
2022-09-12T04:13:51.656Z,1.85
2022-09-12T04:16:19.126Z,1.95
2022-09-12T04:18:47.203Z,5.40
2022-09-12T04:21:17.201Z,3.10
2022-09-12T04:23:44.312Z,6.22
2022-09-12T04:26:12.037Z,5.88
2022-09-12T04:28:39.326Z,3.25
2022-09-12T04:31:09.093Z,2.33
2022-09-12T04:36:12.590Z,4.40
2022-09-12T04:38:39.592Z,1.35
2022-09-12T04:41:12.526Z,4.78
2022-09-12T04:43:40.036Z,1.67
2022-09-12T04:46:08.956Z,2.47
2022-09-12T04:48:35.932Z,2.03
2022-09-12T04:51:15.927Z,3.97
2022-09-12T04:53:43.420Z,4.47
2022-09-12T04:56:12.539Z,1.95
2022-09-12T04:58:39.779Z,6.32
2022-09-12T05:01:21.895Z,2.63
2022-09-12T05:03:50.746Z,5.55
2022-09-12T05:06:20.921Z,3.93
2022-09-12T05:08:47.928Z,2.72
2022-09-12T05:11:20.521Z,5.35
2022-09-12T05:13:51.087Z,7.30
2022-09-12T05:16:19.198Z,2.83
2022-09-12T05:18:47.373Z,1.20
2022-09-12T05:21:16.726Z,4.28
2022-09-12T05:23:43.820Z,6.53
2022-09-12T05:26:15.655Z,3.28
2022-09-12T05:28:43.806Z,2.42
2022-09-12T05:31:15.271Z,1.23
2022-09-12T05:33:44.100Z,5.47
2022-09-12T05:36:16.284Z,5.33
2022-09-12T05:38:43.316Z,5.75
2022-09-12T05:41:18.956Z,7.57
2022-09-12T05:43:55.382Z,10.00
2022-09-12T05:46:25.403Z,6.47
2022-09-12T05:48:56.359Z,6.10
2022-09-12T05:51:29.029Z,8.00
2022-09-12T05:53:59.435Z,2.90
2022-09-12T05:56:28.527Z,2.60
2022-09-12T05:59:01.414Z,2.88
2022-09-12T06:01:36.675Z,2.78
2022-09-12T06:04:07.005Z,1.30
2022-09-12T06:06:39.097Z,5.15
2022-09-12T06:09:06.983Z,7.32
2022-09-12T06:11:35.865Z,5.50
2022-09-12T06:14:03.114Z,5.37
2022-09-12T06:16:34.461Z,4.43
2022-09-12T06:19:04.221Z,10.10
2022-09-12T06:24:02.805Z,2.22
2022-09-12T06:26:30.612Z,2.05
2022-09-12T06:29:00.184Z,5.20
2022-09-12T06:31:29.623Z,3.47
2022-09-12T06:33:57.805Z,5.68
2022-09-12T06:36:27.887Z,4.32
2022-09-12T06:39:03.789Z,3.40
2022-09-12T06:41:32.837Z,4.97
2022-09-12T06:44:00.856Z,1.55
2022-09-12T06:46:28.734Z,4.47
2022-09-12T06:49:00.819Z,4.93
2022-09-12T06:51:28.766Z,1.95
2022-09-12T06:53:57.251Z,5.18
2022-09-12T06:56:26.893Z,3.45
2022-09-12T06:58:56.605Z,8.23
2022-09-12T07:03:54.555Z,7.15
2022-09-12T07:06:24.438Z,8.05
2022-09-12T07:08:51.552Z,11.27
2022-09-12T07:11:26.933Z,6.30
2022-09-12T07:13:56.476Z,9.77
2022-09-12T07:16:24.065Z,4.35
2022-09-12T07:18:53.269Z,2.75
2022-09-12T07:21:20.908Z,4.93
2022-09-12T07:23:48.458Z,12.38
2022-09-12T07:26:17.870Z,5.38
2022-09-12T07:28:45.273Z,3.78
2022-09-12T07:31:15.168Z,3.97
2022-09-12T07:33:43.172Z,2.10
2022-09-12T07:36:18.502Z,5.30
2022-09-12T07:38:47.003Z,9.48
2022-09-12T07:41:17.141Z,3.28
2022-09-12T07:43:44.007Z,5.97
2022-09-12T07:46:11.962Z,4.13
2022-09-12T07:48:39.456Z,2.50
2022-09-12T07:51:09.519Z,4.07
2022-09-12T07:53:42.189Z,6.18
2022-09-12T07:56:10.523Z,4.72
2022-09-12T07:58:39.275Z,5.75
2022-09-12T08:01:13.294Z,5.30
2022-09-12T08:03:41.599Z,8.38
2022-09-12T08:06:14.268Z,3.95
2022-09-12T08:08:42.145Z,4.88
2022-09-12T08:11:14.545Z,5.03
2022-09-12T08:13:42.756Z,3.80
2022-09-12T08:16:13.933Z,4.18
2022-09-12T08:18:41.711Z,5.22
2022-09-12T08:21:15.182Z,9.82
2022-09-12T08:23:43.344Z,4.53
2022-09-12T08:26:11.594Z,5.40
2022-09-12T08:28:41.363Z,5.20
2022-09-12T08:33:36.909Z,4.38
2022-09-12T08:36:05.593Z,8.82
2022-09-12T08:38:33.478Z,4.18
2022-09-12T08:41:18.248Z,6.18
2022-09-12T08:44:22.264Z,5.82
2022-09-12T08:47:14.184Z,8.73
2022-09-12T08:50:05.729Z,7.57
2022-09-12T08:52:53.995Z,7.35
2022-09-12T08:55:23.905Z,4.03
2022-09-12T08:57:52.181Z,7.15
2022-09-12T09:00:20.511Z,1.42
2022-09-12T09:02:55.301Z,3.80
2022-09-12T09:05:54.676Z,6.85
2022-09-12T09:08:40.420Z,1.25
2022-09-12T09:11:58.847Z,1.88
2022-09-12T09:14:49.384Z,2.55
2022-09-12T09:17:25.959Z,48.33
2022-09-12T09:20:04.748Z,37.97
2022-09-12T09:22:48.237Z,33.38
2022-09-12T09:25:24.498Z,3.22
2022-09-12T09:28:02.506Z,4.95
2022-09-12T09:30:30.508Z,4.28
2022-09-12T09:33:01.141Z,6.88
2022-09-12T09:35:57.022Z,5.55
2022-09-12T09:38:25.763Z,5.45
2022-09-12T09:40:59.045Z,4.43
2022-09-12T09:43:30.089Z,2.60
2022-09-12T09:46:01.841Z,3.13
2022-09-12T09:48:35.316Z,7.20
2022-09-12T09:51:07.389Z,2.05
2022-09-12T09:54:01.537Z,2.45
2022-09-12T09:56:34.428Z,5.93
2022-09-12T09:59:17.705Z,4.97
2022-09-12T10:01:55.151Z,5.60
2022-09-12T10:04:28.269Z,5.38
2022-09-12T10:07:00.518Z,8.00
2022-09-12T10:09:35.384Z,9.15
2022-09-12T10:12:29.042Z,4.15
2022-09-12T10:15:00.877Z,6.40
2022-09-12T10:17:51.167Z,6.00
2022-09-12T10:20:40.672Z,3.03
2022-09-12T10:26:01.558Z,6.25
2022-09-12T10:28:48.318Z,3.67
2022-09-12T10:31:29.178Z,6.68
2022-09-12T10:33:59.912Z,3.88
2022-09-12T10:36:36.658Z,5.13
2022-09-12T10:39:04.975Z,5.85
2022-09-12T10:41:39.928Z,4.95
2022-09-12T10:44:17.024Z,4.95
2022-09-12T10:46:44.198Z,3.90
2022-09-12T10:49:22.548Z,5.57
2022-09-12T10:51:50.270Z,2.70
2022-09-12T10:54:21.247Z,3.22
2022-09-12T10:57:18.405Z,4.18
2022-09-12T10:59:45.105Z,3.67
2022-09-12T11:02:45.797Z,1.67
2022-09-12T11:05:18.433Z,2.65
2022-09-12T11:08:02.483Z,3.35
2022-09-12T11:10:48.124Z,1.40
2022-09-12T11:13:24.620Z,5.97
2022-09-12T11:16:00.323Z,3.22
2022-09-12T11:18:33.130Z,5.50
2022-09-12T11:21:23.557Z,1.83
2022-09-12T11:24:15.654Z,2.40
2022-09-12T11:26:54.835Z,5.90
2022-09-12T11:29:27.673Z,2.38
2022-09-12T11:32:18.982Z,1.80
2022-09-12T11:35:17.228Z,1.40
2022-09-12T11:37:47.365Z,2.47
2022-09-12T11:40:44.290Z,4.00
2022-09-12T11:43:32.492Z,0.60
2022-09-12T11:46:20.159Z,2.47
2022-09-12T11:49:14.510Z,0.60
2022-09-12T11:52:05.967Z,1.95
2022-09-12T11:54:41.765Z,2.22
2022-09-12T11:57:37.178Z,1.98
2022-09-12T12:00:18.690Z,0.90
2022-09-12T12:03:06.739Z,1.15
2022-09-12T12:05:52.749Z,1.80
2022-09-12T12:08:22.619Z,2.47
2022-09-12T12:10:52.265Z,2.88
2022-09-12T12:13:28.811Z,1.80
2022-09-12T12:16:04.266Z,1.65
2022-09-12T12:18:37.266Z,0.93
2022-09-12T12:21:28.453Z,1.80
2022-09-12T12:24:07.523Z,0.73
2022-09-12T12:26:43.080Z,1.30
2022-09-12T12:29:19.822Z,1.27
2022-09-12T12:31:59.522Z,0.70
2022-09-12T12:34:44.094Z,1.63
2022-09-12T12:37:20.076Z,8.10
2022-09-12T12:39:50.802Z,7.10
2022-09-12T12:42:35.111Z,7.00
2022-09-12T12:45:17.505Z,10.32
2022-09-12T12:48:11.967Z,7.53
2022-09-12T12:50:40.027Z,7.22
2022-09-12T12:53:19.302Z,8.13
2022-09-12T12:55:50.771Z,6.85
2022-09-12T12:58:26.360Z,1.38
2022-09-12T13:01:15.014Z,0.98
2022-09-12T13:03:46.506Z,4.20
2022-09-12T13:06:32.277Z,2.28
2022-09-12T13:09:08.394Z,5.82
2022-09-12T13:11:42.723Z,5.75
2022-09-12T13:14:50.210Z,3.42
2022-09-12T13:17:35.899Z,4.40
2022-09-12T13:20:29.589Z,4.22
2022-09-12T13:22:57.610Z,1.40
2022-09-12T13:25:34.861Z,1.20
2022-09-12T13:28:12.164Z,2.70
2022-09-12T13:30:55.230Z,3.30
2022-09-12T13:33:43.826Z,14.57
2022-09-12T13:36:25.694Z,22.13
2022-09-12T13:39:16.714Z,24.58
2022-09-12T13:42:22.260Z,23.45
2022-09-12T13:44:53.290Z,20.13
2022-09-12T13:47:27.390Z,5.72
2022-09-12T13:49:55.852Z,4.05
2022-09-12T13:52:26.473Z,4.45
2022-09-12T13:54:58.549Z,8.77
2022-09-12T13:57:32.821Z,8.40
2022-09-12T14:00:02.394Z,12.30
2022-09-12T14:05:12.369Z,15.70
2022-09-12T14:08:08.558Z,5.55
2022-09-12T14:10:39.574Z,23.88
2022-09-12T14:13:21.766Z,20.23
2022-09-12T14:15:52.752Z,20.35
2022-09-12T14:18:36.579Z,19.13
2022-09-12T14:21:27.657Z,5.43
2022-09-12T14:23:55.387Z,5.30
2022-09-12T14:26:23.666Z,4.55
2022-09-12T14:28:51.466Z,6.80
2022-09-12T14:31:24.821Z,17.83
2022-09-12T14:33:57.314Z,17.02
2022-09-12T14:36:30.633Z,15.02
2022-09-12T14:39:02.554Z,14.90
2022-09-12T14:41:39.043Z,15.70
2022-09-12T14:44:10.866Z,14.63
2022-09-12T14:46:39.764Z,14.13
2022-09-12T14:49:29.715Z,14.27
2022-09-12T14:52:01.237Z,13.73
2022-09-12T14:54:27.981Z,12.80
2022-09-12T14:57:28.081Z,14.25
2022-09-12T15:00:10.049Z,12.57
2022-09-12T15:02:37.286Z,11.45
2022-09-12T15:05:04.100Z,10.85
2022-09-12T15:07:38.572Z,12.45
2022-09-12T15:10:05.894Z,10.80
2022-09-12T15:12:32.918Z,10.65
2022-09-12T15:15:21.335Z,13.23
2022-09-12T15:17:48.096Z,10.73
2022-09-12T15:20:15.842Z,11.55
2022-09-12T15:22:43.421Z,11.20
2022-09-12T15:25:12.654Z,16.65
2022-09-12T15:27:41.045Z,11.75
2022-09-12T15:30:10.505Z,11.18
2022-09-12T15:32:37.780Z,11.90
2022-09-12T15:35:14.791Z,10.48
2022-09-12T15:37:41.718Z,11.93
2022-09-12T15:40:10.090Z,18.95
2022-09-12T15:42:37.243Z,19.92
2022-09-12T15:45:19.162Z,20.70
2022-09-12T15:47:46.878Z,18.60
2022-09-12T15:50:14.193Z,16.75
2022-09-12T15:52:41.518Z,14.00
2022-09-12T15:55:35.127Z,12.30
2022-09-12T15:58:06.883Z,12.02
2022-09-12T16:00:34.518Z,12.68
2022-09-12T16:03:01.586Z,12.75
2022-09-12T16:05:29.691Z,3.05
2022-09-12T16:07:56.518Z,2.63
2022-09-12T16:10:27.971Z,5.20
2022-09-12T16:12:55.237Z,6.90
2022-09-12T16:15:26.022Z,4.47
2022-09-12T16:17:54.262Z,6.80
2022-09-12T16:20:22.416Z,7.50
2022-09-12T16:22:49.720Z,5.07
2022-09-12T16:25:17.732Z,11.68
2022-09-12T16:27:44.953Z,6.72
2022-09-12T16:30:13.393Z,6.05
2022-09-12T16:32:40.776Z,4.13
2022-09-12T16:35:08.416Z,7.45
2022-09-12T16:37:35.654Z,4.03
2022-09-12T16:40:04.187Z,1.95
2022-09-12T16:42:31.442Z,2.30
2022-09-12T16:44:58.457Z,2.63
2022-09-12T16:47:25.254Z,2.33
2022-09-12T16:49:52.209Z,5.78
2022-09-12T16:52:19.497Z,4.68
2022-09-12T16:54:46.282Z,5.07
2022-09-12T16:57:13.130Z,5.43
2022-09-12T16:59:39.985Z,2.60
2022-09-12T17:02:07.717Z,4.88
2022-09-12T17:04:34.552Z,4.45
2022-09-12T17:07:01.439Z,4.30
2022-09-12T17:09:29.569Z,4.75
2022-09-12T17:11:56.655Z,6.55
2022-09-12T17:14:24.511Z,8.60
2022-09-12T17:16:52.307Z,5.18
2022-09-12T17:19:28.307Z,3.25
2022-09-12T17:22:16.824Z,3.10
2022-09-12T17:24:43.898Z,3.35
2022-09-12T17:27:10.800Z,3.13
2022-09-12T17:29:38.751Z,7.20
2022-09-12T17:32:05.694Z,4.25
2022-09-12T17:34:32.513Z,4.95
2022-09-12T17:36:59.242Z,7.97
2022-09-12T17:39:26.356Z,1.20
2022-09-12T17:41:54.785Z,2.65
2022-09-12T17:44:24.358Z,4.78
2022-09-12T17:46:51.342Z,4.72
2022-09-12T17:49:22.290Z,12.52
2022-09-12T17:51:49.922Z,6.15
2022-09-12T17:54:18.582Z,9.10
2022-09-12T17:56:47.415Z,2.80
2022-09-12T17:59:16.857Z,10.53
2022-09-12T18:02:02.732Z,4.63
2022-09-12T18:04:30.080Z,4.07
2022-09-12T18:06:57.800Z,8.02
2022-09-12T18:09:28.612Z,4.63
2022-09-12T18:11:55.750Z,1.63
2022-09-12T18:14:22.689Z,4.68
2022-09-12T18:16:49.941Z,10.88
2022-09-12T18:19:17.256Z,34.47
2022-09-12T18:21:44.782Z,33.95
2022-09-12T18:24:12.027Z,93.07
2022-09-12T18:26:39.232Z,70.68
2022-09-12T18:29:06.552Z,98.32
2022-09-12T18:31:33.501Z,32.75
2022-09-12T18:34:01.120Z,87.68
2022-09-12T18:36:28.981Z,32.50
2022-09-12T18:38:58.944Z,35.92
2022-09-12T18:41:26.701Z,8.35
2022-09-12T18:43:57.718Z,4.50
2022-09-12T18:46:24.643Z,59.80
2022-09-12T18:48:51.944Z,48.97
2022-09-12T18:51:21.014Z,37.50
2022-09-12T18:53:53.273Z,25.27
2022-09-12T18:56:21.598Z,30.50
2022-09-12T18:58:54.213Z,22.20
2022-09-12T19:01:27.434Z,30.15
2022-09-12T19:03:55.304Z,18.83
2022-09-12T19:06:27.520Z,19.80
2022-09-12T19:08:56.394Z,16.08
2022-09-12T19:11:24.527Z,16.20
2022-09-12T19:13:53.289Z,16.83
2022-09-12T19:16:23.201Z,16.85
2022-09-12T19:18:52.412Z,17.77
2022-09-12T19:21:39.041Z,16.98
2022-09-12T19:24:10.195Z,16.33
2022-09-12T19:26:39.202Z,16.95
2022-09-12T19:29:06.682Z,15.73
2022-09-12T19:31:34.114Z,16.33
2022-09-12T19:34:03.011Z,16.23
2022-09-12T19:36:47.245Z,15.13
2022-09-12T19:39:16.502Z,17.42
2022-09-12T19:41:44.133Z,14.80
2022-09-12T19:44:11.772Z,13.05
2022-09-12T19:46:38.910Z,12.77
2022-09-12T19:49:05.868Z,11.80
2022-09-12T19:51:32.586Z,12.88
2022-09-12T19:53:59.454Z,12.75
2022-09-12T19:56:26.301Z,1.58
2022-09-12T19:58:56.426Z,4.25
2022-09-12T20:01:28.772Z,1.75
2022-09-12T20:03:57.433Z,33.67
2022-09-12T20:06:24.689Z,28.85
2022-09-12T20:08:51.635Z,29.02
2022-09-12T20:11:21.649Z,19.42
2022-09-12T20:13:48.387Z,17.60
2022-09-12T20:16:25.633Z,16.17
2022-09-12T20:18:55.260Z,16.40
2022-09-12T20:21:25.537Z,16.42
2022-09-12T20:23:52.743Z,22.48
2022-09-12T20:26:20.733Z,14.80
2022-09-12T20:28:48.737Z,18.30
2022-09-12T20:31:16.563Z,13.25
2022-09-12T20:33:45.810Z,13.90
2022-09-12T20:36:17.283Z,12.88
2022-09-12T20:38:50.248Z,12.00
2022-09-12T20:41:18.222Z,11.25
2022-09-12T20:43:45.044Z,11.82
2022-09-12T20:46:12.297Z,12.52
2022-09-12T20:48:39.487Z,11.80
2022-09-12T20:51:07.358Z,10.35
2022-09-12T20:53:35.402Z,11.23
2022-09-12T20:56:03.476Z,10.55
2022-09-12T20:58:30.350Z,10.82
2022-09-12T21:00:57.266Z,10.98
2022-09-12T21:03:25.681Z,10.43
2022-09-12T21:05:52.884Z,10.32
2022-09-12T21:08:19.669Z,10.27
2022-09-12T21:10:46.805Z,9.70
2022-09-12T21:13:13.901Z,10.07
2022-09-12T21:15:41.881Z,9.90
2022-09-12T21:18:09.044Z,10.10
2022-09-12T21:20:35.864Z,10.38
2022-09-12T21:23:02.687Z,12.20
2022-09-12T21:25:30.555Z,10.70
2022-09-12T21:27:57.845Z,9.63
2022-09-12T21:30:24.664Z,10.23
2022-09-12T21:32:51.953Z,10.40
2022-09-12T21:35:18.681Z,10.77
2022-09-12T21:37:45.419Z,10.05
2022-09-12T21:40:12.432Z,11.20
2022-09-12T21:42:39.169Z,11.65
2022-09-12T21:45:06.425Z,9.15
2022-09-12T21:47:33.268Z,1.80
2022-09-12T21:50:00.136Z,2.78
2022-09-12T21:52:27.694Z,2.28
2022-09-12T21:54:54.716Z,3.53
2022-09-12T21:57:21.799Z,1.77
2022-09-12T21:59:48.524Z,0.93
2022-09-12T22:02:16.422Z,0.50
2022-09-12T22:04:43.573Z,0.68
2022-09-12T22:07:11.290Z,0.57
2022-09-12T22:09:38.313Z,0.35
2022-09-12T22:12:07.876Z,0.55
2022-09-12T22:17:06.643Z,0.52
2022-09-12T22:19:33.531Z,8.05
2022-09-12T22:22:19.010Z,8.23
2022-09-12T22:24:46.228Z,8.98
2022-09-12T22:27:13.209Z,8.70
2022-09-12T22:29:40.109Z,9.70
2022-09-12T22:32:06.804Z,9.07
2022-09-12T22:34:33.597Z,8.63
2022-09-12T22:37:00.984Z,9.02
2022-09-12T22:39:27.789Z,8.57
2022-09-12T22:41:54.555Z,8.80
2022-09-12T22:44:21.435Z,10.20
2022-09-12T22:46:48.574Z,9.15
2022-09-12T22:49:15.385Z,8.77
2022-09-12T22:51:42.621Z,8.77
2022-09-12T22:54:10.729Z,9.38
2022-09-12T22:56:40.234Z,9.30
2022-09-12T22:59:07.449Z,11.27
2022-09-12T23:01:35.532Z,9.95
2022-09-12T23:04:05.512Z,9.52
2022-09-12T23:06:32.468Z,11.40
2022-09-12T23:08:59.522Z,10.05
2022-09-12T23:11:27.985Z,9.82
2022-09-12T23:13:54.828Z,9.35
2022-09-12T23:16:24.542Z,11.48
2022-09-12T23:18:52.130Z,9.20
2022-09-12T23:21:21.338Z,9.73
2022-09-12T23:23:48.811Z,9.40
2022-09-12T23:26:24.698Z,9.40
2022-09-12T23:28:59.820Z,9.20
2022-09-12T23:31:30.394Z,8.50
2022-09-12T23:33:59.094Z,8.85
2022-09-12T23:36:26.277Z,8.70
2022-09-12T23:38:54.456Z,8.27
2022-09-12T23:41:22.286Z,10.30
2022-09-12T23:43:49.466Z,9.20
2022-09-12T23:46:18.245Z,8.98
2022-09-12T23:48:45.547Z,9.20
2022-09-12T23:51:12.651Z,8.80
2022-09-12T23:53:40.213Z,9.07
2022-09-12T23:56:07.432Z,9.70
2022-09-12T23:58:34.206Z,9.48
